Time;durP1;ratioP1;P1;durP2;ratioP2;P2;SDS_P1;SDS_P2;PMS_P1;PMS_P2;Temp;Humidity;BMP_temperature;BMP_pressure;BME280_temperature;BME280_humidity;BME280_pressure;Samples;Min_cycle;Max_cycle;Signal;HPM_P1;HPM_P2
2021/11/26 00:00:21;;;;;;;;;;;;;;;21.50;35.15;100906.63;7285608;19;153860;-52
2021/11/26 00:02:47;;;;;;;;;;;;;;;21.49;34.77;100916.19;7287144;19;151801;-52
2021/11/26 00:05:14;;;;;;;;;;;;;;;21.47;34.72;100916.53;7285737;19;153170;-51
2021/11/26 00:07:41;;;;;;;;;;;;;;;21.45;34.51;100913.19;7286920;19;153309;-52
2021/11/26 00:10:08;;;;;;;;;;;;;;;21.45;34.70;100910.38;7285586;19;152133;-52
2021/11/26 00:12:35;;;;;;;;;;;;;;;21.43;34.90;100907.06;7286122;19;153328;-52
2021/11/26 00:15:19;;;;;;;;;;;;;;;21.42;34.52;100905.41;7285345;19;153273;-52
2021/11/26 00:17:50;;;;;;;;;;;;;;;21.46;34.71;100894.34;7298465;19;152309;-54
2021/11/26 00:20:17;;;;;;;;;;;;;;;21.45;35.02;100895.50;7287533;19;153810;-51
2021/11/26 00:22:44;;;;;;;;;;;;;;;21.44;35.26;100894.66;7288570;19;151728;-51
2021/11/26 00:25:11;;;;;;;;;;;;;;;21.48;35.48;100887.28;7288767;19;153319;-51
2021/11/26 00:27:38;;;;;;;;;;;;;;;21.49;35.82;100882.47;7286797;19;153254;-51
2021/11/26 00:30:05;;;;;;;;;;;;;;;21.46;35.47;100877.47;7288106;19;152217;-51
2021/11/26 00:32:31;;;;;;;;;;;;;;;21.43;35.46;100876.16;7287926;19;153268;-51
2021/11/26 00:34:58;;;;;;;;;;;;;;;21.42;35.45;100859.59;7287428;19;152550;-51
2021/11/26 00:37:25;;;;;;;;;;;;;;;21.41;35.78;100861.56;7289589;19;151740;-51
2021/11/26 00:39:52;;;;;;;;;;;;;;;21.38;36.09;100850.97;7295353;19;152702;-51
2021/11/26 00:42:19;;;;;;;;;;;;;;;21.35;36.32;100845.97;7288717;19;152137;-51
2021/11/26 00:44:45;;;;;;;;;;;;;;;21.32;36.01;100846.59;7289023;19;152645;-51
2021/11/26 00:47:12;;;;;;;;;;;;;;;21.29;36.31;100830.38;7286272;19;154347;-50
2021/11/26 00:49:39;;;;;;;;;;;;;;;21.27;36.35;100818.63;7289169;19;151936;-50
2021/11/26 00:52:06;;;;;;;;;;;;;;;21.26;36.56;100805.72;7287365;19;152493;-51
2021/11/26 00:54:33;;;;;;;;;;;;;;;21.23;36.75;100792.31;7285412;19;152224;-51
2021/11/26 00:57:02;;;;;;;;;;;;;;;21.19;36.34;100789.28;7286426;19;152605;-51
2021/11/26 00:59:28;;;;;;;;;;;;;;;21.16;36.58;100789.94;7287010;19;153100;-51
2021/11/26 01:01:55;;;;;;;;;;;;;;;21.13;36.80;100778.47;7295640;19;153473;-51
2021/11/26 01:04:22;;;;;;;;;;;;;;;21.09;36.58;100775.44;7286541;19;153731;-51
2021/11/26 01:06:48;;;;;;;;;;;;;;;21.05;36.77;100762.34;7283390;19;153919;-51
2021/11/26 01:09:15;;;;;;;;;;;;;;;21.05;36.76;100762.34;7288142;19;151483;-50
2021/11/26 01:11:42;;;;;;;;;;;;;;;21.02;37.31;100757.38;7287094;19;153606;-50
2021/11/26 01:14:09;;;;;;;;;;;;;;;20.99;37.27;100741.97;7285962;19;152652;-51
2021/11/26 01:16:36;;;;;;;;;;;;;;;20.96;37.08;100737.00;7285757;19;153603;-51
2021/11/26 01:19:03;;;;;;;;;;;;;;;20.92;37.71;100738.78;7288848;19;153306;-51
2021/11/26 01:21:29;;;;;;;;;;;;;;;20.91;37.41;100733.47;7286326;19;153252;-51
2021/11/26 01:23:58;;;;;;;;;;;;;;;20.92;38.00;100718.28;7297535;19;152019;-51
2021/11/26 01:26:26;;;;;;;;;;;;;;;20.88;37.95;100712.47;7288098;19;153708;-51
2021/11/26 01:28:53;;;;;;;;;;;;;;;20.84;38.06;100703.88;7284128;19;152082;-50
2021/11/26 01:31:20;;;;;;;;;;;;;;;20.84;37.97;100711.47;7287356;19;153328;-51
2021/11/26 01:33:47;;;;;;;;;;;;;;;20.80;37.94;100705.63;7283942;19;154514;-51
2021/11/26 01:36:14;;;;;;;;;;;;;;;20.80;38.50;100697.19;7286108;19;152134;-51
2021/11/26 01:38:41;;;;;;;;;;;;;;;20.75;38.20;100696.50;7287044;19;151712;-52
2021/11/26 01:41:09;;;;;;;;;;;;;;;20.74;38.47;100689.22;7286575;19;153324;-51
2021/11/26 01:43:36;;;;;;;;;;;;;;;20.69;38.65;100690.16;7294244;19;152539;-51
2021/11/26 01:46:09;;;;;;;;;;;;;;;20.69;38.40;100692.97;7286207;19;153770;-51
2021/11/26 01:48:37;;;;;;;;;;;;;;;20.65;39.10;100680.72;7286615;19;152240;-51
2021/11/26 01:51:04;;;;;;;;;;;;;;;20.63;38.67;100682.16;7286351;19;153233;-50
2021/11/26 01:53:31;;;;;;;;;;;;;;;20.56;39.00;100674.19;7283731;19;154006;-50
2021/11/26 01:55:58;;;;;;;;;;;;;;;20.53;38.86;100663.59;7286867;19;152042;-50
2021/11/26 01:58:25;;;;;;;;;;;;;;;20.51;39.30;100657.47;7287901;19;152914;-50
2021/11/26 02:00:53;;;;;;;;;;;;;;;20.46;39.06;100648.31;7283831;19;153235;-50
2021/11/26 02:03:20;;;;;;;;;;;;;;;20.48;38.96;100643.25;7285508;19;151796;-51
2021/11/26 02:05:47;;;;;;;;;;;;;;;20.44;39.21;100631.00;7290299;19;152743;-51
2021/11/26 02:08:13;;;;;;;;;;;;;;;20.35;39.03;100623.28;7283531;19;152073;-51
2021/11/26 02:10:40;;;;;;;;;;;;;;;20.33;39.42;100622.78;7286690;19;153976;-51
2021/11/26 02:13:07;;;;;;;;;;;;;;;20.32;39.35;100609.91;7283874;19;153272;-51
2021/11/26 02:15:42;;;;;;;;;;;;;;;20.35;39.67;100614.06;7285042;19;152048;-50
2021/11/26 02:18:10;;;;;;;;;;;;;;;20.28;39.58;100606.03;7286156;19;153473;-51
2021/11/26 02:20:38;;;;;;;;;;;;;;;20.25;39.89;100597.44;7286414;19;154024;-51
2021/11/26 02:23:05;;;;;;;;;;;;;;;20.24;39.77;100601.38;7285462;19;151851;-51
2021/11/26 02:25:31;;;;;;;;;;;;;;;20.21;39.84;100582.38;7283787;19;152539;-51
2021/11/26 02:27:59;;;;;;;;;;;;;;;20.19;39.93;100576.25;7292633;19;153858;-51
2021/11/26 02:30:27;;;;;;;;;;;;;;;20.15;39.88;100569.59;7286287;19;152592;-51
2021/11/26 02:32:56;;;;;;;;;;;;;;;20.14;40.16;100562.31;7283692;19;153338;-50
2021/11/26 02:35:23;;;;;;;;;;;;;;;20.11;40.05;100541.38;7286223;19;152049;-51
2021/11/26 02:37:50;;;;;;;;;;;;;;;20.07;40.23;100545.13;7285965;19;153335;-51
2021/11/26 02:40:18;;;;;;;;;;;;;;;20.09;39.96;100535.22;7284391;19;153410;-51
2021/11/26 02:42:45;;;;;;;;;;;;;;;20.06;40.25;100523.81;7285031;19;151967;-51
2021/11/26 02:45:12;;;;;;;;;;;;;;;19.98;40.17;100506.59;7286027;19;151658;-51
2021/11/26 02:47:40;;;;;;;;;;;;;;;19.95;40.29;100498.81;7281220;19;154268;-51
2021/11/26 02:50:09;;;;;;;;;;;;;;;19.92;40.37;100496.63;7293778;19;152027;-50
2021/11/26 02:52:36;;;;;;;;;;;;;;;19.90;40.55;100490.50;7282900;19;154284;-51
2021/11/26 02:55:04;;;;;;;;;;;;;;;19.88;40.32;100481.59;7285082;19;152412;-51
2021/11/26 02:57:31;;;;;;;;;;;;;;;19.84;40.15;100474.97;7285463;19;153534;-51
2021/11/26 02:59:57;;;;;;;;;;;;;;;19.83;40.73;100475.28;7283849;19;153957;-50
2021/11/26 03:02:24;;;;;;;;;;;;;;;19.81;40.61;100464.34;7285330;19;151907;-51
2021/11/26 03:04:51;;;;;;;;;;;;;;;19.79;40.56;100458.25;7285071;19;153732;-50
2021/11/26 03:07:18;;;;;;;;;;;;;;;19.77;40.70;100454.09;7283694;19;154082;-51
2021/11/26 03:09:44;;;;;;;;;;;;;;;19.74;40.66;100438.75;7284532;19;151779;-51
2021/11/26 03:12:11;;;;;;;;;;;;;;;19.72;40.46;100435.41;7290357;19;152531;-50
2021/11/26 03:14:38;;;;;;;;;;;;;;;19.68;40.56;100430.75;7285127;19;152097;-51
2021/11/26 03:17:04;;;;;;;;;;;;;;;19.66;40.70;100419.06;7283404;19;151665;-50
2021/11/26 03:19:31;;;;;;;;;;;;;;;19.62;40.70;100416.06;7280586;19;153843;-51
2021/11/26 03:21:58;;;;;;;;;;;;;;;19.62;40.83;100410.47;7280818;19;152134;-51
2021/11/26 03:24:25;;;;;;;;;;;;;;;19.58;40.77;100409.41;7280970;19;153469;-51
2021/11/26 03:26:52;;;;;;;;;;;;;;;19.56;41.10;100406.09;7279876;19;153427;-51
2021/11/26 03:29:18;;;;;;;;;;;;;;;19.56;40.79;100388.47;7280642;19;152222;-51
2021/11/26 03:31:45;;;;;;;;;;;;;;;19.53;41.13;100382.31;7281476;19;152897;-50
2021/11/26 03:34:12;;;;;;;;;;;;;;;19.49;40.93;100378.50;7282681;19;152356;-50
2021/11/26 03:36:38;;;;;;;;;;;;;;;19.45;40.95;100366.25;7279834;19;152030;-50
2021/11/26 03:39:05;;;;;;;;;;;;;;;19.45;41.17;100360.66;7279867;19;153259;-51
2021/11/26 03:41:32;;;;;;;;;;;;;;;19.41;41.28;100351.19;7280458;19;151698;-50
2021/11/26 03:44:01;;;;;;;;;;;;;;;19.38;41.23;100348.22;7280644;19;151868;-51
2021/11/26 03:46:28;;;;;;;;;;;;;;;19.36;41.39;100347.69;7279321;19;153252;-50
2021/11/26 03:48:55;;;;;;;;;;;;;;;19.32;41.48;100327.88;7280649;19;152327;-50
2021/11/26 03:51:21;;;;;;;;;;;;;;;19.30;41.36;100315.34;7281021;19;153783;-51
2021/11/26 03:53:48;;;;;;;;;;;;;;;19.28;41.13;100290.44;7285945;19;153557;-51
2021/11/26 03:56:15;;;;;;;;;;;;;;;19.28;41.23;100287.66;7280693;19;152766;-50
2021/11/26 03:58:41;;;;;;;;;;;;;;;19.25;41.17;100273.47;7280969;19;154311;-51
2021/11/26 04:01:08;;;;;;;;;;;;;;;19.23;41.34;100264.53;7288050;19;152117;-51
2021/11/26 04:03:35;;;;;;;;;;;;;;;19.20;41.43;100268.81;7285025;19;153274;-50
2021/11/26 04:06:02;;;;;;;;;;;;;;;19.16;41.50;100256.59;7286397;19;153278;-50
2021/11/26 04:08:28;;;;;;;;;;;;;;;19.14;41.44;100241.22;7285495;19;152364;-51
2021/11/26 04:10:55;;;;;;;;;;;;;;;19.12;41.50;100241.56;7286858;19;152631;-50
2021/11/26 04:13:22;;;;;;;;;;;;;;;19.10;41.70;100213.88;7285856;19;153650;-51
2021/11/26 04:15:48;;;;;;;;;;;;;;;19.07;41.43;100200.50;7297003;19;152199;-50
2021/11/26 04:18:15;;;;;;;;;;;;;;;19.05;41.37;100199.16;7289506;19;153812;-51
2021/11/26 04:20:43;;;;;;;;;;;;;;;19.04;41.63;100191.91;7288056;19;152121;-51
2021/11/26 04:23:10;;;;;;;;;;;;;;;19.03;41.34;100176.25;7288353;19;153585;-51
2021/11/26 04:25:37;;;;;;;;;;;;;;;18.98;41.70;100166.03;7287788;19;153397;-51
2021/11/26 04:28:04;;;;;;;;;;;;;;;18.96;41.41;100159.06;7289415;19;151496;-51
2021/11/26 04:30:30;;;;;;;;;;;;;;;18.95;41.89;100149.00;7289097;19;151788;-51
2021/11/26 04:32:57;;;;;;;;;;;;;;;18.91;41.75;100140.41;7287105;19;152289;-51
2021/11/26 04:35:25;;;;;;;;;;;;;;;18.91;41.50;100129.22;7285358;19;152155;-51
2021/11/26 04:37:52;;;;;;;;;;;;;;;18.89;41.62;100113.91;7295608;19;152360;-51
2021/11/26 04:40:19;;;;;;;;;;;;;;;18.84;42.03;100103.66;7287754;19;151987;-51
2021/11/26 04:42:46;;;;;;;;;;;;;;;18.85;41.48;100096.09;7288877;19;152472;-51
2021/11/26 04:45:14;;;;;;;;;;;;;;;18.83;41.95;100093.59;7285240;19;153509;-51
2021/11/26 04:47:41;;;;;;;;;;;;;;;18.81;42.02;100081.88;7289010;19;151784;-51
2021/11/26 04:50:08;;;;;;;;;;;;;;;18.79;42.05;100073.00;7288640;19;153049;-51
2021/11/26 04:52:35;;;;;;;;;;;;;;;18.77;42.15;100052.91;7287904;19;153453;-50
2021/11/26 04:55:02;;;;;;;;;;;;;;;18.76;42.00;100040.03;7286216;19;152291;-51
2021/11/26 04:57:29;;;;;;;;;;;;;;;18.76;42.43;100026.06;7289538;19;152762;-51
2021/11/26 04:59:56;;;;;;;;;;;;;;;18.82;42.48;100032.34;7294552;19;153128;-51
2021/11/26 05:02:23;;;;;;;;;;;;;;;18.87;42.06;100021.03;7287399;19;153261;-51
2021/11/26 05:04:49;;;;;;;;;;;;;;;18.92;42.56;100015.31;7287556;19;153247;-51
2021/11/26 05:07:18;;;;;;;;;;;;;;;18.97;42.67;100027.19;7288653;19;151857;-51
2021/11/26 05:09:46;;;;;;;;;;;;;;;19.03;42.58;100025.88;7285350;19;152461;-51
2021/11/26 05:12:14;;;;;;;;;;;;;;;19.09;42.87;100015.38;7287094;19;154036;-51
2021/11/26 05:14:40;;;;;;;;;;;;;;;19.14;42.80;100008.81;7285734;19;152177;-51
2021/11/26 05:17:07;;;;;;;;;;;;;;;19.21;43.24;99990.44;7287489;19;152634;-51
2021/11/26 05:19:34;;;;;;;;;;;;;;;19.28;43.13;99971.19;7286976;19;153789;-51
2021/11/26 05:22:01;;;;;;;;;;;;;;;19.36;43.17;99972.34;7293944;19;152164;-51
2021/11/26 05:24:29;;;;;;;;;;;;;;;19.42;43.64;99971.06;7287053;19;153199;-51
2021/11/26 05:26:55;;;;;;;;;;;;;;;19.48;43.41;99953.81;7288202;19;151509;-51
2021/11/26 05:29:22;;;;;;;;;;;;;;;19.56;43.50;99945.75;7286713;19;151581;-51
2021/11/26 05:31:49;;;;;;;;;;;;;;;19.64;44.01;99942.97;7287129;19;153257;-51
2021/11/26 05:34:15;;;;;;;;;;;;;;;19.71;43.40;99942.50;7286360;19;152220;-51
2021/11/26 05:36:48;;;;;;;;;;;;;;;19.78;43.78;99934.41;7287646;19;152371;-51
2021/11/26 05:39:23;;;;;;;;;;;;;;;19.85;43.56;99932.75;7285306;19;152898;-51
2021/11/26 05:41:53;;;;;;;;;;;;;;;19.93;42.90;99931.13;7294794;19;151934;-51
2021/11/26 05:44:20;;;;;;;;;;;;;;;19.99;43.09;99936.22;7286726;19;153273;-51
2021/11/26 05:46:46;;;;;;;;;;;;;;;20.06;42.55;99920.91;7287528;19;151983;-51
2021/11/26 05:49:13;;;;;;;;;;;;;;;20.12;42.59;99911.19;7286393;19;151971;-51
2021/11/26 05:51:40;;;;;;;;;;;;;;;20.17;42.41;99906.19;7285800;19;154329;-52
2021/11/26 05:54:06;;;;;;;;;;;;;;;20.22;42.15;99888.38;7285753;19;151856;-51
2021/11/26 05:56:33;;;;;;;;;;;;;;;20.28;42.15;99887.88;7287663;19;152651;-51
2021/11/26 05:59:00;;;;;;;;;;;;;;;20.34;41.42;99880.16;7283622;19;154086;-51
2021/11/26 06:01:27;;;;;;;;;;;;;;;20.39;41.86;99865.97;7287864;19;151992;-51
2021/11/26 06:03:54;;;;;;;;;;;;;;;20.41;42.12;99850.41;7291000;19;152743;-51
2021/11/26 06:06:20;;;;;;;;;;;;;;;20.46;41.92;99837.38;7286767;19;151877;-51
2021/11/26 06:08:47;;;;;;;;;;;;;;;20.50;41.38;99830.75;7287012;19;152630;-51
2021/11/26 06:11:14;;;;;;;;;;;;;;;20.57;41.47;99819.03;7285463;19;154377;-51
2021/11/26 06:13:40;;;;;;;;;;;;;;;20.60;41.52;99810.75;7286263;19;151809;-51
2021/11/26 06:16:07;;;;;;;;;;;;;;;20.66;41.48;99800.16;7286850;19;152690;-51
2021/11/26 06:18:34;;;;;;;;;;;;;;;20.70;41.06;99784.28;7284863;19;153394;-51
2021/11/26 06:21:00;;;;;;;;;;;;;;;20.75;41.28;99781.28;7285043;19;152438;-51
2021/11/26 06:23:27;;;;;;;;;;;;;;;20.78;41.21;99780.59;7285553;19;152805;-51
2021/11/26 06:25:54;;;;;;;;;;;;;;;20.83;40.94;99758.78;7291713;19;153984;-51
2021/11/26 06:28:20;;;;;;;;;;;;;;;20.86;40.93;99743.22;7285034;19;153511;-51
2021/11/26 06:30:47;;;;;;;;;;;;;;;20.92;40.81;99735.44;7285570;19;153255;-51
2021/11/26 06:33:14;;;;;;;;;;;;;;;20.95;40.70;99721.53;7285968;19;152355;-51
2021/11/26 06:35:40;;;;;;;;;;;;;;;20.98;40.87;99715.25;7282528;19;153401;-51
2021/11/26 06:38:07;;;;;;;;;;;;;;;21.02;40.33;99710.59;7284601;19;152255;-51
2021/11/26 06:40:34;;;;;;;;;;;;;;;21.05;40.43;99701.47;7285376;19;151960;-51
2021/11/26 06:43:04;;;;;;;;;;;;;;;21.09;40.15;99696.00;7284936;19;153305;-51
2021/11/26 06:45:31;;;;;;;;;;;;;;;21.12;40.37;99673.66;7284604;19;153546;-51
2021/11/26 06:47:58;;;;;;;;;;;;;;;21.15;40.51;99670.22;7293080;19;152318;-51
2021/11/26 06:50:24;;;;;;;;;;;;;;;21.18;40.10;99663.06;7284178;19;153844;-51
2021/11/26 06:52:51;;;;;;;;;;;;;;;21.21;40.18;99653.97;7285000;19;151955;-51
2021/11/26 06:55:18;;;;;;;;;;;;;;;21.24;40.35;99650.47;7283636;19;152616;-51
2021/11/26 06:57:45;;;;;;;;;;;;;;;21.27;40.53;99638.53;7284145;19;154200;-51
2021/11/26 07:00:13;;;;;;;;;;;;;;;21.30;39.90;99641.47;7284647;19;151564;-51
2021/11/26 07:02:40;;;;;;;;;;;;;;;21.33;40.28;99628.72;7284287;19;152871;-51
2021/11/26 07:05:09;;;;;;;;;;;;;;;21.36;39.88;99627.19;7281922;19;154417;-51
2021/11/26 07:07:38;;;;;;;;;;;;;;;21.38;40.06;99608.84;7285069;19;152286;-51
2021/11/26 07:10:05;;;;;;;;;;;;;;;21.42;39.82;99594.91;7291253;19;152123;-51
2021/11/26 07:12:32;;;;;;;;;;;;;;;21.44;39.92;99589.78;7286150;19;151738;-51
2021/11/26 07:14:59;;;;;;;;;;;;;;;21.48;39.96;99596.34;7283588;19;152694;-51
2021/11/26 07:17:28;;;;;;;;;;;;;;;21.50;39.80;99589.19;7283741;19;154324;-51
2021/11/26 07:19:55;;;;;;;;;;;;;;;21.53;39.72;99577.25;7284791;19;151827;-51
2021/11/26 07:22:21;;;;;;;;;;;;;;;21.56;39.72;99576.56;7285225;19;153663;-51
2021/11/26 07:24:48;;;;;;;;;;;;;;;21.59;39.61;99559.00;7283314;19;153730;-51
2021/11/26 07:27:15;;;;;;;;;;;;;;;21.62;39.89;99554.69;7284832;19;152349;-51
2021/11/26 07:29:43;;;;;;;;;;;;;;;21.64;39.73;99550.34;7284233;19;153271;-51
2021/11/26 07:32:09;;;;;;;;;;;;;;;21.67;39.83;99540.38;7290573;19;152215;-51
2021/11/26 07:34:39;;;;;;;;;;;;;;;21.69;39.93;99538.88;7288349;19;152670;-51
2021/11/26 07:37:09;;;;;;;;;;;;;;;21.72;39.52;99529.72;7289634;19;153284;-51
2021/11/26 07:39:37;;;;;;;;;;;;;;;21.74;39.32;99513.34;7290882;19;151934;-51
2021/11/26 07:42:08;;;;;;;;;;;;;;;21.76;39.67;99521.41;7290658;19;152015;-51
2021/11/26 07:44:36;;;;;;;;;;;;;;;21.80;39.33;99518.72;7288509;19;153230;-51
2021/11/26 07:47:04;;;;;;;;;;;;;;;21.81;39.63;99509.09;7291002;19;151869;-51
2021/11/26 07:49:31;;;;;;;;;;;;;;;21.82;39.15;99503.13;7287973;19;151904;-51
2021/11/26 07:51:58;;;;;;;;;;;;;;;21.85;39.35;99499.59;7294898;19;153293;-51
2021/11/26 07:54:26;;;;;;;;;;;;;;;21.87;39.88;99497.28;7288443;19;152772;-51
2021/11/26 07:56:53;;;;;;;;;;;;;;;21.89;39.76;99486.50;7290046;19;154315;-51
2021/11/26 07:59:20;;;;;;;;;;;;;;;21.92;39.24;99493.41;7290638;19;151708;-51
2021/11/26 08:01:47;;;;;;;;;;;;;;;21.94;39.57;99479.84;7288573;19;153150;-51
2021/11/26 08:04:16;;;;;;;;;;;;;;;21.96;39.39;99471.88;7286549;19;154205;-51
2021/11/26 08:06:46;;;;;;;;;;;;;;;21.99;39.45;99469.16;7289772;19;151751;-51
2021/11/26 08:09:17;;;;;;;;;;;;;;;22.02;39.70;99453.59;7290395;19;153228;-51
2021/11/26 08:11:45;;;;;;;;;;;;;;;22.03;39.20;99452.41;7288908;19;153247;-51
2021/11/26 08:14:12;;;;;;;;;;;;;;;22.05;39.57;99445.25;7297459;19;152218;-52
2021/11/26 08:16:39;;;;;;;;;;;;;;;22.08;39.41;99438.06;7289081;19;153062;-51
2021/11/26 08:19:06;;;;;;;;;;;;;;;22.10;39.34;99439.38;7289144;19;151890;-51
2021/11/26 08:21:33;;;;;;;;;;;;;;;22.12;39.70;99433.41;7288155;19;153187;-52
2021/11/26 08:24:01;;;;;;;;;;;;;;;22.15;39.75;99429.88;7288000;19;153359;-51
2021/11/26 08:26:28;;;;;;;;;;;;;;;22.17;39.47;99410.63;7289952;19;151740;-51
2021/11/26 08:28:56;;;;;;;;;;;;;;;22.20;39.70;99417.53;7289475;19;152579;-51
2021/11/26 08:31:23;;;;;;;;;;;;;;;22.21;39.98;99394.69;7286203;19;154453;-51
2021/11/26 08:33:49;;;;;;;;;;;;;;;22.24;39.86;99393.97;7289603;19;151954;-51
2021/11/26 08:36:16;;;;;;;;;;;;;;;22.25;39.40;99384.34;7292620;19;152741;-51
2021/11/26 08:38:43;;;;;;;;;;;;;;;22.28;39.95;99377.19;7289416;19;152026;-51
2021/11/26 08:41:09;;;;;;;;;;;;;;;22.29;39.47;99376.84;7289150;19;153288;-51
2021/11/26 08:43:36;;;;;;;;;;;;;;;22.32;39.57;99366.84;7287742;19;153082;-50
2021/11/26 08:46:03;;;;;;;;;;;;;;;22.34;39.23;99358.88;7288867;19;152205;-51
2021/11/26 08:48:29;;;;;;;;;;;;;;;22.36;39.65;99348.06;7289629;19;153126;-51
2021/11/26 08:50:56;;;;;;;;;;;;;;;22.38;39.76;99338.09;7286983;19;153426;-51
2021/11/26 08:53:23;;;;;;;;;;;;;;;22.40;39.67;99332.91;7289118;19;151948;-51
2021/11/26 08:55:55;;;;;;;;;;;;;;;22.42;39.42;99321.31;7287003;19;151596;-52
2021/11/26 08:58:22;;;;;;;;;;;;;;;22.44;39.46;99322.56;7294635;19;152306;-51
2021/11/26 09:00:48;;;;;;;;;;;;;;;22.41;38.85;99317.66;7287505;19;153618;-52
2021/11/26 09:03:16;;;;;;;;;;;;;;;22.34;38.32;99306.22;7283713;19;152947;-52
2021/11/26 09:05:43;;;;;;;;;;;;;;;22.38;38.08;99304.31;7288179;19;152013;-51
2021/11/26 09:08:19;;;;;;;;;;;;;;;22.39;38.19;99311.59;7287935;19;152546;-51
2021/11/26 09:10:47;;;;;;;;;;;;;;;22.39;37.83;99296.72;7287192;19;154088;-52
2021/11/26 09:13:15;;;;;;;;;;;;;;;22.33;37.38;99293.34;7288398;19;151749;-52
2021/11/26 09:15:42;;;;;;;;;;;;;;;22.30;37.12;99270.72;7286835;19;153373;-51
2021/11/26 09:18:10;;;;;;;;;;;;;;;22.25;37.07;99271.81;7284868;19;152461;-51
2021/11/26 09:20:37;;;;;;;;;;;;;;;22.26;37.39;99261.38;7291922;19;152040;-52
2021/11/26 09:23:05;;;;;;;;;;;;;;;22.23;37.15;99256.47;7284374;19;153387;-51
2021/11/26 09:25:32;;;;;;;;;;;;;;;22.20;37.24;99265.63;7285733;19;151839;-51
2021/11/26 09:27:59;;;;;;;;;;;;;;;22.18;37.08;99249.91;7284310;19;153585;-51
2021/11/26 09:30:28;;;;;;;;;;;;;;;22.17;37.29;99239.00;7284849;19;154405;-51
2021/11/26 09:32:55;;;;;;;;;;;;;;;22.13;37.21;99235.28;7283558;19;151826;-51
2021/11/26 09:35:22;;;;;;;;;;;;;;;22.10;36.89;99219.16;7285144;19;153012;-51
2021/11/26 09:37:48;;;;;;;;;;;;;;;22.05;37.03;99222.22;7284415;19;153011;-52
2021/11/26 09:40:16;;;;;;;;;;;;;;;22.04;36.87;99212.16;7285107;19;151855;-51
2021/11/26 09:42:43;;;;;;;;;;;;;;;22.00;36.70;99209.25;7291984;19;152522;-51
2021/11/26 09:45:14;;;;;;;;;;;;;;;21.96;37.15;99213.13;7284756;19;152083;-52
2021/11/26 09:47:40;;;;;;;;;;;;;;;21.94;36.68;99207.06;7284168;19;153629;-52
2021/11/26 09:50:07;;;;;;;;;;;;;;;21.91;37.26;99204.94;7284460;19;153329;-51
2021/11/26 09:52:41;;;;;;;;;;;;;;;21.88;37.24;99200.03;7284907;19;151961;-51
2021/11/26 09:55:19;;;;;;;;;;;;;;;21.85;37.31;99183.91;7284789;19;153445;-52
2021/11/26 09:57:46;;;;;;;;;;;;;;;21.82;37.00;99173.34;7282353;19;153278;-52
2021/11/26 10:00:14;;;;;;;;;;;;;;;21.78;37.03;99178.06;7285730;19;151785;-52
2021/11/26 10:02:57;;;;;;;;;;;;;;;21.73;37.06;99162.28;7290723;19;153735;-51
2021/11/26 10:05:24;;;;;;;;;;;;;;;21.70;37.30;99163.00;7283256;19;151615;-52
2021/11/26 10:07:52;;;;;;;;;;;;;;;21.68;36.89;99170.97;7284518;19;152865;-51
2021/11/26 10:10:23;;;;;;;;;;;;;;;21.65;37.22;99161.28;7281626;19;153315;-51
2021/11/26 10:13:04;;;;;;;;;;;;;;;21.62;37.57;99150.72;7284214;19;152081;-51
2021/11/26 10:15:34;;;;;;;;;;;;;;;21.56;37.65;99157.81;7282892;19;153363;-53
2021/11/26 10:18:18;;;;;;;;;;;;;;;21.13;36.96;99149.31;7280986;19;153432;-51
2021/11/26 10:20:53;;;;;;;;;;;;;;;20.91;36.91;99144.19;7284123;19;151607;-52
2021/11/26 10:23:22;;;;;;;;;;;;;;;21.03;37.11;99133.75;7281301;19;152491;-52
2021/11/26 10:25:49;;;;;;;;;;;;;;;21.07;37.49;99131.88;7291011;19;154180;-52
2021/11/26 10:28:16;;;;;;;;;;;;;;;21.09;37.39;99131.50;7284000;19;152607;-51
2021/11/26 10:30:44;;;;;;;;;;;;;;;21.13;37.96;99124.84;7283284;19;153314;-51
2021/11/26 10:33:17;;;;;;;;;;;;;;;21.15;38.08;99110.47;7283711;19;151903;-51
2021/11/26 10:36:02;;;;;;;;;;;;;;;21.23;37.76;99106.69;7281757;19;151954;-52
2021/11/26 10:38:30;;;;;;;;;;;;;;;21.21;38.62;99104.22;7282779;19;154897;-54
2021/11/26 10:40:59;;;;;;;;;;;;;;;21.30;38.26;99095.66;7283530;19;152008;-53
2021/11/26 10:43:35;;;;;;;;;;;;;;;21.26;37.77;99084.31;7283646;19;152629;-53
2021/11/26 10:59:32;;;;;;;;;;;;;;;21.19;38.23;99016.72;7282120;19;154467;-52
2021/11/26 11:01:59;;;;;;;;;;;;;;;21.19;38.22;99005.47;7283702;19;152285;-53
2021/11/26 11:04:27;;;;;;;;;;;;;;;21.20;37.94;99009.09;7279268;19;153401;-54
2021/11/26 11:06:58;;;;;;;;;;;;;;;21.22;37.93;98995.50;7282316;19;154213;-53
2021/11/26 11:09:25;;;;;;;;;;;;;;;21.23;38.21;98988.72;7287591;19;151628;-53
2021/11/26 11:11:53;;;;;;;;;;;;;;;21.26;38.26;99000.03;7295634;19;152631;-52
2021/11/26 11:14:24;;;;;;;;;;;;;;;21.27;38.24;99004.50;7289609;19;151795;-53
2021/11/26 11:16:54;;;;;;;;;;;;;;;21.30;37.96;99005.78;7288042;19;153895;-52
2021/11/26 11:19:22;;;;;;;;;;;;;;;21.28;37.87;99006.13;7288021;19;153953;-53
2021/11/26 11:21:50;;;;;;;;;;;;;;;21.30;37.94;99000.94;7288464;19;152235;-53
2021/11/26 11:24:17;;;;;;;;;;;;;;;21.30;38.13;98995.31;7287584;19;152426;-53
2021/11/26 11:26:46;;;;;;;;;;;;;;;21.32;37.76;99000.59;7286117;19;153918;-53
2021/11/26 11:29:17;;;;;;;;;;;;;;;21.32;38.06;98974.50;7289213;19;152122;-53
2021/11/26 11:31:45;;;;;;;;;;;;;;;21.32;38.14;98977.31;7286132;19;152614;-53
2021/11/26 11:34:13;;;;;;;;;;;;;;;21.32;38.18;98974.50;7295461;19;153361;-53
2021/11/26 11:36:41;;;;;;;;;;;;;;;21.32;38.02;98968.88;7287684;19;153237;-53
2021/11/26 11:39:08;;;;;;;;;;;;;;;21.29;38.01;98956.38;7285803;19;153869;-52
2021/11/26 11:41:55;;;;;;;;;;;;;;;21.30;37.84;98972.84;7288044;19;151819;-53
2021/11/26 11:44:21;;;;;;;;;;;;;;;21.28;37.94;98957.56;7288137;19;153227;-53
2021/11/26 11:46:49;;;;;;;;;;;;;;;21.27;38.19;98964.34;7287405;19;154092;-53
2021/11/26 11:49:23;;;;;;;;;;;;;;;21.26;38.11;98948.66;7288259;19;152208;-53
2021/11/26 11:51:51;;;;;;;;;;;;;;;21.27;37.87;98934.25;7288469;19;153779;-53
2021/11/26 11:54:18;;;;;;;;;;;;;;;21.27;37.74;98944.69;7287384;19;153260;-53
2021/11/26 11:56:47;;;;;;;;;;;;;;;21.24;37.69;98946.22;7292313;19;152072;-53
2021/11/26 11:59:30;;;;;;;;;;;;;;;21.21;37.87;98929.31;7287371;19;153342;-53
2021/11/26 12:01:58;;;;;;;;;;;;;;;21.18;37.95;98932.81;7288020;19;151975;-52
2021/11/26 12:04:26;;;;;;;;;;;;;;;21.15;37.96;98911.91;7281862;19;153583;-53
2021/11/26 12:06:53;;;;;;;;;;;;;;;21.16;37.94;98915.53;7284761;19;153783;-53
2021/11/26 12:09:22;;;;;;;;;;;;;;;21.10;37.68;98906.50;7284561;19;151953;-53
2021/11/26 12:11:55;;;;;;;;;;;;;;;21.10;37.98;98920.56;7285774;19;152561;-53
2021/11/26 12:14:22;;;;;;;;;;;;;;;21.07;37.75;98907.25;7284452;19;153307;-53
2021/11/26 12:16:51;;;;;;;;;;;;;;;21.05;37.85;98908.78;7292674;19;152237;-52
2021/11/26 12:19:22;;;;;;;;;;;;;;;21.03;37.87;98905.53;7281765;19;154070;-53
2021/11/26 12:21:51;;;;;;;;;;;;;;;21.00;37.58;98906.22;7284811;19;152471;-53
2021/11/26 12:24:23;;;;;;;;;;;;;;;21.02;37.83;98904.72;7285117;19;152634;-53
2021/11/26 12:26:54;;;;;;;;;;;;;;;21.00;37.58;98892.19;7283578;19;154029;-53
2021/11/26 12:29:28;;;;;;;;;;;;;;;20.98;37.46;98883.34;7283351;19;152099;-53
2021/11/26 12:32:04;;;;;;;;;;;;;;;21.00;37.84;98886.56;7283293;19;153663;-52
2021/11/26 12:34:38;;;;;;;;;;;;;;;20.97;37.68;98873.28;7284091;19;153519;-54
2021/11/26 12:37:15;;;;;;;;;;;;;;;20.98;37.87;98863.69;7283909;19;151885;-53
2021/11/26 12:39:42;;;;;;;;;;;;;;;20.96;37.37;98866.03;7290992;19;152748;-53
2021/11/26 12:42:09;;;;;;;;;;;;;;;20.93;37.40;98859.16;7285688;19;152088;-53
2021/11/26 12:44:37;;;;;;;;;;;;;;;20.92;37.76;98853.88;7284336;19;153428;-53
2021/11/26 12:47:12;;;;;;;;;;;;;;;20.86;37.75;98854.16;7283747;19;154232;-54
2021/11/26 12:52:11;;;;;;;;;;;;;;;20.80;37.50;98855.59;7284329;19;152607;-53